createdAt,value
2023-03-13T00:01:13.926Z,44.96
2023-03-13T00:03:45.075Z,44.89
2023-03-13T00:06:13.494Z,44.83
2023-03-13T00:08:43.177Z,44.70
2023-03-13T00:11:12.745Z,44.72
2023-03-13T00:13:40.999Z,44.78
2023-03-13T00:16:16.154Z,44.86
2023-03-13T00:18:46.481Z,44.78
2023-03-13T00:21:21.638Z,44.62
2023-03-13T00:23:51.607Z,44.70
2023-03-13T00:26:21.414Z,44.78
2023-03-13T00:28:50.969Z,44.64
2023-03-13T00:31:22.726Z,44.67
2023-03-13T00:33:52.879Z,44.53
2023-03-13T00:36:23.066Z,44.58
2023-03-13T00:38:53.150Z,44.52
2023-03-13T00:41:22.790Z,44.63
2023-03-13T00:43:51.288Z,44.59
2023-03-13T00:46:21.751Z,44.66
2023-03-13T00:48:50.230Z,44.54
2023-03-13T00:51:20.019Z,44.53
2023-03-13T00:53:48.318Z,44.55
2023-03-13T00:56:19.200Z,44.45
2023-03-13T00:58:48.725Z,44.44
2023-03-13T01:01:18.798Z,44.45
2023-03-13T01:03:49.116Z,44.54
2023-03-13T01:06:22.047Z,44.93
2023-03-13T01:08:50.374Z,45.04
2023-03-13T01:11:22.094Z,45.29
2023-03-13T01:13:50.765Z,45.19
2023-03-13T01:16:20.993Z,45.25
2023-03-13T01:18:51.432Z,45.40
2023-03-13T01:21:21.097Z,45.53
2023-03-13T01:23:50.586Z,45.66
2023-03-13T01:26:20.384Z,45.68
2023-03-13T01:28:48.819Z,45.62
2023-03-13T01:31:19.506Z,45.59
2023-03-13T01:33:52.922Z,45.73
2023-03-13T01:36:21.167Z,45.80
2023-03-13T01:38:50.069Z,45.65
2023-03-13T01:41:20.388Z,45.60
2023-03-13T01:43:48.448Z,45.73
2023-03-13T01:46:17.966Z,45.62
2023-03-13T01:48:50.717Z,45.66
2023-03-13T01:51:23.882Z,45.60
2023-03-13T01:53:57.737Z,45.61
2023-03-13T01:56:33.699Z,45.43
2023-03-13T01:59:01.835Z,45.50
2023-03-13T02:01:31.103Z,45.57
2023-03-13T02:03:59.858Z,45.47
2023-03-13T02:06:30.795Z,45.44
2023-03-13T02:09:05.130Z,45.41
2023-03-13T02:11:46.951Z,45.39
2023-03-13T02:14:14.974Z,45.30
2023-03-13T02:16:47.750Z,45.31
2023-03-13T02:19:20.459Z,45.19
2023-03-13T02:21:54.781Z,45.28
2023-03-13T02:24:30.917Z,45.23
2023-03-13T02:27:00.310Z,45.14
2023-03-13T02:29:31.058Z,45.05
2023-03-13T02:31:59.032Z,45.11
2023-03-13T02:34:31.818Z,45.05
2023-03-13T02:37:01.102Z,45.01
2023-03-13T02:39:32.286Z,45.02
2023-03-13T02:42:04.507Z,45.00
2023-03-13T02:44:32.323Z,44.94
2023-03-13T02:47:02.821Z,45.00
2023-03-13T02:49:31.524Z,45.06
2023-03-13T02:52:06.150Z,45.02
2023-03-13T02:54:36.999Z,44.88
2023-03-13T02:57:07.026Z,45.03
2023-03-13T02:59:36.111Z,44.90
2023-03-13T03:02:04.393Z,44.90
2023-03-13T03:04:32.640Z,45.02
2023-03-13T03:07:00.580Z,44.94
2023-03-13T03:09:28.597Z,44.87
2023-03-13T03:11:56.660Z,44.94
2023-03-13T03:14:26.104Z,44.89
2023-03-13T03:16:54.048Z,44.70
2023-03-13T03:19:22.017Z,44.82
2023-03-13T03:21:50.561Z,44.82
2023-03-13T03:24:18.473Z,44.89
2023-03-13T03:26:47.127Z,44.83
2023-03-13T03:29:15.178Z,44.77
2023-03-13T03:31:44.630Z,44.67
2023-03-13T03:34:12.634Z,44.76
2023-03-13T03:36:40.657Z,44.71
2023-03-13T03:39:08.598Z,44.71
2023-03-13T03:41:37.472Z,44.79
2023-03-13T03:44:06.021Z,44.64
2023-03-13T03:46:34.308Z,44.82
2023-03-13T03:49:03.644Z,44.80
2023-03-13T03:51:34.106Z,44.76
2023-03-13T03:54:05.090Z,44.92
2023-03-13T03:56:33.064Z,44.78
2023-03-13T03:59:01.003Z,44.86
2023-03-13T04:01:31.797Z,44.90
2023-03-13T04:03:59.727Z,44.76
2023-03-13T04:06:29.004Z,44.88
2023-03-13T04:08:57.084Z,44.75
2023-03-13T04:11:24.953Z,44.75
2023-03-13T04:13:52.878Z,44.78
2023-03-13T04:16:20.972Z,44.84
2023-03-13T04:18:48.921Z,44.85
2023-03-13T04:21:16.876Z,44.86
2023-03-13T04:23:46.159Z,44.80
2023-03-13T04:26:14.159Z,44.88
2023-03-13T04:28:42.046Z,44.90
2023-03-13T04:31:10.067Z,44.79
2023-03-13T04:33:38.034Z,44.80
2023-03-13T04:36:06.889Z,44.86
2023-03-13T04:38:34.960Z,44.88
2023-03-13T04:41:04.374Z,44.91
2023-03-13T04:43:32.309Z,44.78
2023-03-13T04:46:00.336Z,44.83
2023-03-13T04:48:28.383Z,44.84
2023-03-13T04:50:56.310Z,45.02
2023-03-13T04:53:24.293Z,44.66
2023-03-13T04:55:52.282Z,44.92
2023-03-13T04:58:21.608Z,44.86
2023-03-13T05:00:49.552Z,44.89
2023-03-13T05:03:20.295Z,44.87
2023-03-13T05:05:48.197Z,44.82
2023-03-13T05:08:16.168Z,44.91
2023-03-13T05:10:44.433Z,45.01
2023-03-13T05:13:12.386Z,44.90
2023-03-13T05:15:41.787Z,44.83
2023-03-13T05:18:09.735Z,44.88
2023-03-13T05:20:37.710Z,44.91
2023-03-13T05:23:05.613Z,44.91
2023-03-13T05:25:33.555Z,44.99
2023-03-13T05:28:01.533Z,44.90
2023-03-13T05:30:29.610Z,45.19
2023-03-13T05:32:59.038Z,45.00
2023-03-13T05:35:27.153Z,45.05
2023-03-13T05:37:55.170Z,45.07
2023-03-13T05:40:23.141Z,44.97
2023-03-13T05:42:51.096Z,45.02
2023-03-13T05:45:19.264Z,45.10
2023-03-13T05:47:47.207Z,45.04
2023-03-13T05:50:19.601Z,45.11
2023-03-13T05:52:47.651Z,44.96
2023-03-13T05:55:15.601Z,45.05
2023-03-13T05:57:46.072Z,44.98
2023-03-13T06:00:15.304Z,44.96
2023-03-13T06:02:43.943Z,45.07
2023-03-13T06:05:12.285Z,44.97
2023-03-13T06:07:41.638Z,44.99
2023-03-13T06:10:10.910Z,45.18
2023-03-13T06:12:38.912Z,45.30
2023-03-13T06:15:11.936Z,44.74
2023-03-13T06:17:40.265Z,44.97
2023-03-13T06:20:09.273Z,45.17
2023-03-13T06:22:37.215Z,45.53
2023-03-13T06:25:07.835Z,45.63
2023-03-13T06:27:35.838Z,46.04
2023-03-13T06:30:04.186Z,46.28
2023-03-13T06:32:32.326Z,46.36
2023-03-13T06:35:00.428Z,46.37
2023-03-13T06:37:28.449Z,46.59
2023-03-13T06:39:56.366Z,46.58
2023-03-13T06:42:25.675Z,46.72
2023-03-13T06:44:53.566Z,46.74
2023-03-13T06:47:21.559Z,46.74
2023-03-13T06:49:50.556Z,46.69
2023-03-13T06:52:21.263Z,46.77
2023-03-13T06:54:51.397Z,46.83
2023-03-13T06:57:21.908Z,46.80
2023-03-13T06:59:51.217Z,46.85
2023-03-13T07:02:19.088Z,46.87
2023-03-13T07:04:47.304Z,46.81
2023-03-13T07:07:29.521Z,46.68
2023-03-13T07:09:59.339Z,47.04
2023-03-13T07:12:27.268Z,47.12
2023-03-13T07:14:56.499Z,47.13
2023-03-13T07:17:24.553Z,47.14
2023-03-13T07:19:52.480Z,47.24
2023-03-13T07:22:20.422Z,47.30
2023-03-13T07:24:48.542Z,47.17
2023-03-13T07:27:17.510Z,47.23
2023-03-13T07:29:45.445Z,47.25
2023-03-13T07:32:14.744Z,47.22
2023-03-13T07:34:44.729Z,47.26
2023-03-13T07:37:13.125Z,47.27
2023-03-13T07:39:41.244Z,47.29
2023-03-13T07:42:12.932Z,47.78
2023-03-13T07:44:40.837Z,47.92
2023-03-13T07:47:09.176Z,48.01
2023-03-13T07:49:42.131Z,48.00
2023-03-13T07:52:10.431Z,48.18
2023-03-13T07:54:38.534Z,48.27
2023-03-13T07:57:06.889Z,48.49
2023-03-13T07:59:34.794Z,48.20
2023-03-13T08:02:03.261Z,48.31
2023-03-13T08:04:31.351Z,48.21
2023-03-13T08:07:00.626Z,47.88
2023-03-13T08:09:28.582Z,48.03
2023-03-13T08:11:56.568Z,48.09
2023-03-13T08:14:24.670Z,47.96
2023-03-13T08:16:52.704Z,48.03
2023-03-13T08:19:20.670Z,48.13
2023-03-13T08:21:48.585Z,48.40
2023-03-13T08:24:17.897Z,48.29
2023-03-13T08:26:45.845Z,48.57
2023-03-13T08:29:15.344Z,48.50
2023-03-13T08:31:48.292Z,48.67
2023-03-13T08:34:17.772Z,48.47
2023-03-13T08:36:46.123Z,48.45
2023-03-13T08:39:16.548Z,48.56
2023-03-13T08:41:46.179Z,48.57
2023-03-13T08:44:15.840Z,48.45
2023-03-13T08:46:44.362Z,48.62
2023-03-13T08:49:13.415Z,47.79
2023-03-13T08:51:41.489Z,48.16
2023-03-13T08:54:09.464Z,48.19
2023-03-13T08:56:37.940Z,48.13
2023-03-13T08:59:07.422Z,48.34
2023-03-13T09:01:36.652Z,48.44
2023-03-13T09:04:06.225Z,48.26
2023-03-13T09:06:34.786Z,48.30
2023-03-13T09:09:03.432Z,47.93
2023-03-13T09:11:31.460Z,48.13
2023-03-13T09:14:00.270Z,48.27
2023-03-13T09:16:31.321Z,48.29
2023-03-13T09:19:00.305Z,48.17
2023-03-13T09:21:30.301Z,47.85
2023-03-13T09:23:58.964Z,47.99
2023-03-13T09:26:28.167Z,47.85
2023-03-13T09:28:56.849Z,47.91
2023-03-13T09:31:27.235Z,48.46
2023-03-13T09:33:57.021Z,48.67
2023-03-13T09:36:25.575Z,48.63
2023-03-13T09:38:55.436Z,48.38
2023-03-13T09:41:31.292Z,48.27
2023-03-13T09:44:06.367Z,48.43
2023-03-13T09:46:40.961Z,48.19
2023-03-13T09:49:18.289Z,48.05
2023-03-13T09:51:51.782Z,48.28
2023-03-13T09:54:27.072Z,48.26
2023-03-13T09:56:59.997Z,48.09
2023-03-13T09:59:34.680Z,48.06
2023-03-13T10:02:06.534Z,48.13
2023-03-13T10:04:41.989Z,47.94
2023-03-13T10:07:12.711Z,48.02
2023-03-13T10:09:42.472Z,48.04
2023-03-13T10:12:20.728Z,48.03
2023-03-13T10:15:01.892Z,47.94
2023-03-13T10:17:34.948Z,47.95
2023-03-13T10:20:18.604Z,48.10
2023-03-13T10:22:49.413Z,47.95
2023-03-13T10:25:28.319Z,47.94
2023-03-13T10:27:56.860Z,47.88
2023-03-13T10:30:26.828Z,47.55
2023-03-13T10:33:02.392Z,47.81
2023-03-13T10:35:37.897Z,47.87
2023-03-13T10:38:07.666Z,47.60
2023-03-13T10:40:36.003Z,47.68
2023-03-13T10:43:06.131Z,47.79
2023-03-13T10:45:38.939Z,48.19
2023-03-13T10:48:13.852Z,48.46
2023-03-13T10:50:46.771Z,48.41
2023-03-13T10:53:27.328Z,48.31
2023-03-13T10:55:56.590Z,48.34
2023-03-13T10:58:31.598Z,48.18
2023-03-13T11:01:19.170Z,48.13
2023-03-13T11:03:48.731Z,47.98
2023-03-13T11:06:29.172Z,47.86
2023-03-13T11:09:01.708Z,47.97
2023-03-13T11:11:31.208Z,47.79
2023-03-13T11:14:10.772Z,47.70
2023-03-13T11:16:47.246Z,47.64
2023-03-13T11:19:34.215Z,47.57
2023-03-13T11:22:16.289Z,47.53
2023-03-13T11:24:47.703Z,47.45
2023-03-13T11:27:25.969Z,47.52
2023-03-13T11:30:09.171Z,47.49
2023-03-13T11:32:43.435Z,47.46
2023-03-13T11:35:22.436Z,47.44
2023-03-13T11:37:55.104Z,47.35
2023-03-13T11:40:29.652Z,47.26
2023-03-13T11:43:24.509Z,47.29
2023-03-13T11:46:09.687Z,47.29
2023-03-13T11:48:53.522Z,47.13
2023-03-13T11:51:30.170Z,47.10
2023-03-13T11:54:26.810Z,47.11
2023-03-13T11:56:58.397Z,47.18
2023-03-13T11:59:37.719Z,47.03
2023-03-13T12:02:19.269Z,46.96
2023-03-13T12:04:52.392Z,47.09
2023-03-13T12:07:26.576Z,46.90
2023-03-13T12:10:02.507Z,47.03
2023-03-13T12:12:41.513Z,46.82
2023-03-13T12:15:21.668Z,46.83
2023-03-13T12:17:54.181Z,46.66
2023-03-13T12:20:26.787Z,46.70
2023-03-13T12:23:05.120Z,46.55
2023-03-13T12:25:39.887Z,46.50
2023-03-13T12:28:24.158Z,46.47
2023-03-13T12:31:00.387Z,46.53
2023-03-13T12:33:34.060Z,46.39
2023-03-13T12:36:09.194Z,46.39
2023-03-13T12:38:42.161Z,46.17
2023-03-13T12:41:20.602Z,46.10
2023-03-13T12:44:06.918Z,46.23
2023-03-13T12:46:48.829Z,46.10
2023-03-13T12:49:48.018Z,45.91
2023-03-13T12:52:54.462Z,45.96
2023-03-13T12:55:38.860Z,46.04
2023-03-13T12:58:26.579Z,45.66
2023-03-13T13:00:57.034Z,45.78
2023-03-13T13:03:36.444Z,45.89
2023-03-13T13:06:10.079Z,45.79
2023-03-13T13:08:41.682Z,45.90
2023-03-13T13:11:48.357Z,45.88
2023-03-13T13:14:52.738Z,45.78
2023-03-13T13:17:27.413Z,45.67
2023-03-13T13:19:57.329Z,45.80
2023-03-13T13:22:47.930Z,45.74
2023-03-13T13:25:32.259Z,45.97
2023-03-13T13:28:27.504Z,45.99
2023-03-13T13:30:57.061Z,45.98
2023-03-13T13:33:42.105Z,46.09
2023-03-13T13:36:31.383Z,46.05
2023-03-13T13:39:00.209Z,46.09
2023-03-13T13:41:37.169Z,46.34
2023-03-13T13:44:26.637Z,46.26
2023-03-13T13:46:56.799Z,46.23
2023-03-13T13:49:36.126Z,46.27
2023-03-13T13:52:34.274Z,46.29
2023-03-13T13:55:03.231Z,45.96
2023-03-13T13:57:33.907Z,46.15
2023-03-13T14:00:17.939Z,46.10
2023-03-13T14:02:52.371Z,46.04
2023-03-13T14:05:26.804Z,45.93
2023-03-13T14:08:01.651Z,45.80
2023-03-13T14:10:38.226Z,45.77
2023-03-13T14:13:15.281Z,45.63
2023-03-13T14:15:45.565Z,45.49
2023-03-13T14:18:20.190Z,45.65
2023-03-13T14:20:58.978Z,45.50
2023-03-13T14:23:32.998Z,45.48
2023-03-13T14:26:10.983Z,45.30
2023-03-13T14:28:42.289Z,45.27
2023-03-13T14:31:12.163Z,45.33
2023-03-13T14:33:40.344Z,45.42
2023-03-13T14:36:10.123Z,45.42
2023-03-13T14:38:38.383Z,45.10
2023-03-13T14:41:06.643Z,45.18
2023-03-13T14:43:38.281Z,45.10
2023-03-13T14:46:16.456Z,45.03
2023-03-13T14:48:44.661Z,45.10
2023-03-13T14:51:21.314Z,45.00
2023-03-13T14:53:56.938Z,45.17
2023-03-13T14:56:34.241Z,45.08
2023-03-13T14:59:09.677Z,45.09
2023-03-13T15:01:37.793Z,45.04
2023-03-13T15:04:06.088Z,45.03
2023-03-13T15:06:35.642Z,45.20
2023-03-13T15:09:19.773Z,45.11
2023-03-13T15:11:57.609Z,44.98
2023-03-13T15:14:38.379Z,45.16
2023-03-13T15:17:14.085Z,45.22
2023-03-13T15:19:42.154Z,45.17
2023-03-13T15:22:16.341Z,45.16
2023-03-13T15:24:56.168Z,45.08
2023-03-13T15:27:32.627Z,45.29
2023-03-13T15:30:00.588Z,45.21
2023-03-13T15:32:30.714Z,45.13
2023-03-13T15:35:01.682Z,45.14
2023-03-13T15:37:32.130Z,45.14
2023-03-13T15:40:00.420Z,45.19
2023-03-13T15:42:28.526Z,45.33
2023-03-13T15:44:56.539Z,45.43
2023-03-13T15:47:24.661Z,45.40
2023-03-13T15:49:52.648Z,45.30
2023-03-13T15:52:22.821Z,45.27
2023-03-13T15:54:55.005Z,45.37
2023-03-13T15:57:28.034Z,45.35
2023-03-13T15:59:56.124Z,45.43
2023-03-13T16:02:27.073Z,45.44
2023-03-13T16:04:55.975Z,45.28
2023-03-13T16:07:24.459Z,45.37
2023-03-13T16:09:56.241Z,45.27
2023-03-13T16:12:24.216Z,45.29
2023-03-13T16:14:52.169Z,45.40
2023-03-13T16:17:22.064Z,45.48
2023-03-13T16:19:50.086Z,45.56
2023-03-13T16:22:18.092Z,45.43
2023-03-13T16:24:46.044Z,45.50
2023-03-13T16:27:16.985Z,45.56
2023-03-13T16:29:45.731Z,45.50
2023-03-13T16:32:15.983Z,45.57
2023-03-13T16:34:44.321Z,45.52
2023-03-13T16:37:13.981Z,45.67
2023-03-13T16:39:44.126Z,45.69
2023-03-13T16:42:12.880Z,45.74
2023-03-13T16:44:42.218Z,45.64
2023-03-13T16:47:20.525Z,43.68
2023-03-13T16:49:48.659Z,44.69
2023-03-13T16:52:17.739Z,45.12
2023-03-13T16:54:46.399Z,45.51
2023-03-13T16:57:16.680Z,45.46
2023-03-13T16:59:49.015Z,45.36
2023-03-13T17:02:19.060Z,45.26
2023-03-13T17:04:48.565Z,45.21
2023-03-13T17:07:19.729Z,45.26
2023-03-13T17:09:51.440Z,45.26
2023-03-13T17:12:20.205Z,45.21
2023-03-13T17:14:49.570Z,45.23
2023-03-13T17:17:20.807Z,45.25
2023-03-13T17:19:48.999Z,45.33
2023-03-13T17:22:18.783Z,45.37
2023-03-13T17:24:49.616Z,45.21
2023-03-13T17:27:19.317Z,45.26
2023-03-13T17:29:47.375Z,45.25
2023-03-13T17:32:16.719Z,45.28
2023-03-13T17:34:44.676Z,45.41
2023-03-13T17:37:17.211Z,45.44
2023-03-13T17:39:45.695Z,45.47
2023-03-13T17:42:13.940Z,45.65
2023-03-13T17:44:42.195Z,45.43
2023-03-13T17:47:23.500Z,45.63
2023-03-13T17:49:53.992Z,45.62
2023-03-13T17:52:21.875Z,45.79
2023-03-13T17:54:52.304Z,45.79
2023-03-13T17:57:22.739Z,45.57
2023-03-13T17:59:50.811Z,46.18
2023-03-13T18:02:20.254Z,47.95
2023-03-13T18:04:48.947Z,47.20
2023-03-13T18:07:23.036Z,46.97
2023-03-13T18:09:51.019Z,48.78
2023-03-13T18:12:18.957Z,50.32
2023-03-13T18:14:47.307Z,50.25
2023-03-13T18:17:17.854Z,51.22
2023-03-13T18:19:47.262Z,51.61
2023-03-13T18:22:16.289Z,53.34
2023-03-13T18:24:44.500Z,53.68
2023-03-13T18:27:14.206Z,52.30
2023-03-13T18:29:42.893Z,50.64
2023-03-13T18:32:13.104Z,50.23
2023-03-13T18:34:41.170Z,50.38
2023-03-13T18:37:20.403Z,50.64
2023-03-13T18:39:49.957Z,50.63
2023-03-13T18:42:18.182Z,50.79
2023-03-13T18:44:46.145Z,50.51
2023-03-13T18:47:16.228Z,50.47
2023-03-13T18:49:44.586Z,50.43
2023-03-13T18:52:17.275Z,50.44
2023-03-13T18:54:45.410Z,50.81
2023-03-13T18:57:14.743Z,50.18
2023-03-13T18:59:42.768Z,50.55
2023-03-13T19:02:14.748Z,51.32
2023-03-13T19:04:43.155Z,51.09
2023-03-13T19:07:14.946Z,50.40
2023-03-13T19:09:47.377Z,49.93
2023-03-13T19:12:16.582Z,49.78
2023-03-13T19:14:44.623Z,49.71
2023-03-13T19:17:18.724Z,49.49
2023-03-13T19:19:46.732Z,49.36
2023-03-13T19:22:15.171Z,49.24
2023-03-13T19:24:43.147Z,49.16
2023-03-13T19:27:16.809Z,49.43
2023-03-13T19:29:45.644Z,49.27
2023-03-13T19:32:17.717Z,49.16
2023-03-13T19:34:45.864Z,48.85
2023-03-13T19:37:15.479Z,48.78
2023-03-13T19:39:43.783Z,48.68
2023-03-13T19:42:13.297Z,48.54
2023-03-13T19:44:41.471Z,48.37
2023-03-13T19:47:14.600Z,48.47
2023-03-13T19:49:43.056Z,48.49
2023-03-13T19:52:11.080Z,48.46
2023-03-13T19:54:39.085Z,48.26
2023-03-13T19:57:07.151Z,48.15
2023-03-13T19:59:38.762Z,48.15
2023-03-13T20:02:09.226Z,48.42
2023-03-13T20:04:37.422Z,48.30
2023-03-13T20:07:08.489Z,48.25
2023-03-13T20:09:36.905Z,48.13
2023-03-13T20:12:07.813Z,47.95
2023-03-13T20:14:39.582Z,47.73
2023-03-13T20:17:07.554Z,47.89
2023-03-13T20:19:36.278Z,47.76
2023-03-13T20:22:05.337Z,47.74
2023-03-13T20:24:34.479Z,47.82
2023-03-13T20:27:02.571Z,47.46
2023-03-13T20:29:30.726Z,47.66
2023-03-13T20:32:01.347Z,47.72
2023-03-13T20:34:32.110Z,47.67
2023-03-13T20:37:00.224Z,47.51
2023-03-13T20:39:29.278Z,47.29
2023-03-13T20:41:57.528Z,47.30
2023-03-13T20:44:25.602Z,47.32
2023-03-13T20:46:53.597Z,47.21
2023-03-13T20:49:23.003Z,47.27
2023-03-13T20:51:51.314Z,47.00
2023-03-13T20:54:19.254Z,47.09
2023-03-13T20:56:47.200Z,46.91
2023-03-13T20:59:15.232Z,47.03
2023-03-13T21:01:44.041Z,47.11
2023-03-13T21:04:12.233Z,46.88
2023-03-13T21:06:41.818Z,47.09
2023-03-13T21:09:09.772Z,47.24
2023-03-13T21:11:37.718Z,47.03
2023-03-13T21:14:05.783Z,46.97
2023-03-13T21:16:33.847Z,47.15
2023-03-13T21:19:04.524Z,47.03
2023-03-13T21:21:32.835Z,47.09
2023-03-13T21:24:02.160Z,47.16
2023-03-13T21:26:30.165Z,46.95
2023-03-13T21:28:58.464Z,47.03
2023-03-13T21:31:26.452Z,46.88
2023-03-13T21:33:54.490Z,46.87
2023-03-13T21:36:23.756Z,46.86
2023-03-13T21:38:51.741Z,46.74
2023-03-13T21:41:24.131Z,46.93
2023-03-13T21:43:52.078Z,46.61
2023-03-13T21:46:22.293Z,46.62
2023-03-13T21:48:50.326Z,46.73
2023-03-13T21:51:18.445Z,46.61
2023-03-13T21:53:49.233Z,46.39
2023-03-13T21:56:17.411Z,46.42
2023-03-13T21:58:46.674Z,46.39
2023-03-13T22:01:15.651Z,46.48
2023-03-13T22:03:44.117Z,46.25
2023-03-13T22:06:16.285Z,46.50
2023-03-13T22:08:44.259Z,46.35
2023-03-13T22:11:15.426Z,46.05
2023-03-13T22:13:43.473Z,46.12
2023-03-13T22:16:15.902Z,46.90
2023-03-13T22:18:43.984Z,47.51
2023-03-13T22:21:11.890Z,47.02
2023-03-13T22:23:39.936Z,46.89
2023-03-13T22:26:08.426Z,47.01
2023-03-13T22:28:36.347Z,46.89
2023-03-13T22:31:06.210Z,46.95
2023-03-13T22:33:36.590Z,46.91
2023-03-13T22:36:05.579Z,46.93
2023-03-13T22:38:38.725Z,46.42
2023-03-13T22:41:08.944Z,46.73
2023-03-13T22:43:37.115Z,46.70
2023-03-13T22:46:05.353Z,46.67
2023-03-13T22:48:33.312Z,46.84
2023-03-13T22:51:05.671Z,46.58
2023-03-13T22:53:35.987Z,46.54
2023-03-13T22:56:03.941Z,46.68
2023-03-13T22:58:31.817Z,46.47
2023-03-13T23:00:59.942Z,46.56
2023-03-13T23:03:28.160Z,46.56
2023-03-13T23:05:56.153Z,46.49
2023-03-13T23:08:25.482Z,46.39
2023-03-13T23:10:53.448Z,46.51
2023-03-13T23:13:21.446Z,46.35
2023-03-13T23:15:56.558Z,46.54
2023-03-13T23:18:24.889Z,46.37
2023-03-13T23:20:53.178Z,46.45
2023-03-13T23:23:21.443Z,46.51
2023-03-13T23:25:50.982Z,46.50
2023-03-13T23:28:19.017Z,46.48
2023-03-13T23:30:49.664Z,46.38
2023-03-13T23:33:17.634Z,46.19
2023-03-13T23:35:45.666Z,46.36
2023-03-13T23:38:13.921Z,46.21
2023-03-13T23:40:41.851Z,46.26
2023-03-13T23:43:11.144Z,46.12
2023-03-13T23:45:39.642Z,46.15
2023-03-13T23:48:07.897Z,46.24
2023-03-13T23:50:37.356Z,45.94
2023-03-13T23:53:05.270Z,46.13
2023-03-13T23:55:33.301Z,45.84
2023-03-13T23:58:01.246Z,46.02
